Time;durP1;ratioP1;P1;durP2;ratioP2;P2;SDS_P1;SDS_P2;PMS_P1;PMS_P2;Temp;Humidity;BMP_temperature;BMP_pressure;BME280_temperature;BME280_humidity;BME280_pressure;Samples;Min_cycle;Max_cycle;Signal;HPM_P1;HPM_P2
2021/07/21 00:02:07;;;;;;;0.10;0.10;;;;;;;17.27;69.67;99001.22;4988676;28;20050;-76
2021/07/21 00:04:33;;;;;;;0.10;0.10;;;;;;;17.21;69.92;98998.47;4988914;28;20069;-77
2021/07/21 00:06:59;;;;;;;0.10;0.10;;;;;;;17.18;70.39;98999.72;4982799;28;20042;-76
2021/07/21 00:09:25;;;;;;;0.10;0.10;;;;;;;17.10;70.80;98992.59;4971994;28;20497;-79
2021/07/21 00:14:38;;;;;;;0.10;0.10;;;;;;;17.14;70.57;98986.69;4989561;28;20129;-78
2021/07/21 00:17:08;;;;;;;0.10;0.10;;;;;;;17.12;70.63;98984.19;4990078;28;20046;-78
2021/07/21 00:22:18;;;;;;;0.20;0.20;;;;;;;17.13;71.09;98990.50;4996184;28;20051;-78
2021/07/21 00:24:45;;;;;;;0.10;0.10;;;;;;;17.11;71.34;98987.94;4979123;28;20034;-77
2021/07/21 00:27:11;;;;;;;0.10;0.10;;;;;;;17.05;71.33;98978.72;4990152;28;20494;-78
2021/07/21 00:29:37;;;;;;;0.10;0.10;;;;;;;17.08;70.94;98983.78;4990819;28;20038;-77
2021/07/21 00:32:04;;;;;;;0.10;0.10;;;;;;;17.06;71.26;98983.13;4989893;28;20041;-77
2021/07/21 00:34:32;;;;;;;0.10;0.10;;;;;;;17.07;71.14;98987.53;4990421;28;20149;-76
2021/07/21 00:37:00;;;;;;;0.10;0.10;;;;;;;16.98;71.37;98980.63;4990620;28;20054;-76
2021/07/21 00:39:27;;;;;;;0.10;0.10;;;;;;;16.97;71.50;98981.66;4990586;28;20476;-76
2021/07/21 00:41:53;;;;;;;0.20;0.20;;;;;;;16.90;72.13;98980.81;4990623;28;20061;-77
2021/07/21 00:44:19;;;;;;;0.10;0.10;;;;;;;16.89;72.01;98968.19;4955975;28;20484;-75
2021/07/21 00:46:50;;;;;;;0.10;0.10;;;;;;;16.86;72.00;98971.38;4998666;28;20046;-78
2021/07/21 00:49:16;;;;;;;0.10;0.10;;;;;;;16.84;72.08;98970.72;4984448;28;20052;-77
2021/07/21 00:51:42;;;;;;;0.10;0.10;;;;;;;16.83;72.11;98969.88;4990461;28;20057;-77
2021/07/21 00:54:08;;;;;;;0.10;0.10;;;;;;;16.74;72.63;98965.66;5001115;28;20046;-75
2021/07/21 00:56:36;;;;;;;0.10;0.10;;;;;;;16.74;72.56;98965.66;5006060;28;20038;-75
2021/07/21 00:59:03;;;;;;;0.10;0.10;;;;;;;16.72;72.75;98966.91;4998024;28;20105;-74
2021/07/21 01:01:29;;;;;;;0.10;0.10;;;;;;;16.72;72.62;98956.81;5005190;28;20038;-75
2021/07/21 01:03:55;;;;;;;0.10;0.10;;;;;;;16.71;72.65;98949.69;5021462;28;20053;-76
2021/07/21 01:06:23;;;;;;;0.10;0.10;;;;;;;16.72;72.26;98950.53;4989542;28;20089;-75
2021/07/21 01:08:58;;;;;;;0.10;0.10;;;;;;;16.69;72.32;98945.47;4992344;28;20389;-76
2021/07/21 01:11:41;;;;;;;0.10;0.10;;;;;;;16.68;72.26;98950.09;4973120;28;20062;-77
2021/07/21 01:14:23;;;;;;;0.10;0.10;;;;;;;16.74;72.30;98949.28;4967536;28;20204;-76
2021/07/21 01:16:55;;;;;;;0.20;0.20;;;;;;;16.71;71.88;98943.38;4989590;28;20542;-77
2021/07/21 01:19:58;;;;;;;0.10;0.10;;;;;;;16.68;72.07;98931.00;4983151;28;20502;-76
2021/07/21 01:22:29;;;;;;;0.10;0.10;;;;;;;16.69;71.70;98924.47;4969658;28;20046;-76
2021/07/21 01:25:16;;;;;;;0.10;0.10;;;;;;;16.69;71.70;98931.84;4979792;28;20113;-77
2021/07/21 01:28:02;;;;;;;0.10;0.10;;;;;;;16.69;71.89;98929.09;4989814;28;20150;-78
2021/07/21 01:30:31;;;;;;;0.10;0.10;;;;;;;16.67;72.07;98921.09;4978020;28;20099;-74
2021/07/21 01:33:01;;;;;;;0.10;0.10;;;;;;;16.68;72.09;98927.44;4983367;28;20587;-76
2021/07/21 01:35:30;;;;;;;0.10;0.10;;;;;;;16.72;71.71;98928.69;4979435;28;20420;-77
2021/07/21 01:37:59;;;;;;;0.10;0.10;;;;;;;16.69;72.15;98923.66;4989262;28;20416;-76
2021/07/21 01:40:30;;;;;;;0.10;0.10;;;;;;;16.70;72.20;98917.13;4981457;28;20047;-77
2021/07/21 01:42:57;;;;;;;0.10;0.10;;;;;;;16.78;71.43;98922.41;4983453;28;20042;-75
2021/07/21 01:45:25;;;;;;;0.10;0.10;;;;;;;16.79;71.10;98918.66;4988301;28;20585;-74
2021/07/21 01:47:52;;;;;;;0.10;0.10;;;;;;;16.80;71.20;98914.88;4988688;28;20122;-76
2021/07/21 01:50:24;;;;;;;0.10;0.10;;;;;;;16.85;71.11;98917.78;4974460;28;20484;-75
2021/07/21 01:52:51;;;;;;;0.10;0.10;;;;;;;16.88;71.01;98917.38;5003091;28;20053;-76
2021/07/21 01:55:23;;;;;;;0.10;0.10;;;;;;;16.92;70.95;98913.19;4987627;28;20515;-76
2021/07/21 01:57:51;;;;;;;0.10;0.10;;;;;;;16.96;70.19;98919.91;4982320;28;20052;-76
2021/07/21 02:00:29;;;;;;;0.10;0.10;;;;;;;17.03;69.87;98915.28;4956934;28;20535;-75
2021/07/21 02:02:56;;;;;;;0.20;0.20;;;;;;;17.13;69.24;98924.94;4972082;28;20042;-77
2021/07/21 02:05:42;;;;;;;0.10;0.10;;;;;;;17.20;68.88;98920.31;4964717;28;20122;-78
2021/07/21 02:08:09;;;;;;;0.13;0.13;;;;;;;17.21;68.41;98916.53;4984392;28;20069;-75
2021/07/21 02:10:35;;;;;;;0.10;0.10;;;;;;;17.27;68.28;98921.97;4965689;28;20043;-75
2021/07/21 02:13:15;;;;;;;0.15;0.15;;;;;;;17.30;68.12;98918.84;4972010;28;20520;-76
2021/07/21 02:15:49;;;;;;;0.10;0.10;;;;;;;17.32;68.50;98924.06;4985196;28;20042;-74
2021/07/21 02:18:20;;;;;;;0.10;0.10;;;;;;;17.28;68.81;98920.91;4983478;28;20046;-76
2021/07/21 02:20:52;;;;;;;0.20;0.20;;;;;;;17.32;68.70;98926.81;4982005;28;20050;-74
2021/07/21 02:23:25;;;;;;;0.20;0.20;;;;;;;17.27;69.15;98915.69;4971280;28;20552;-75
2021/07/21 02:26:13;;;;;;;0.13;0.13;;;;;;;17.26;69.26;98924.94;4989447;28;20088;-76
2021/07/21 02:28:40;;;;;;;0.20;0.20;;;;;;;17.20;69.89;98917.59;4963702;28;20222;-75
2021/07/21 02:31:09;;;;;;;0.10;0.10;;;;;;;17.24;70.01;98932.50;4986118;28;20478;-77
2021/07/21 02:33:50;;;;;;;0.20;0.20;;;;;;;17.24;70.29;98927.03;4970773;28;20108;-77
2021/07/21 02:36:23;;;;;;;0.20;0.20;;;;;;;17.43;69.77;98938.97;4970932;28;20078;-76
2021/07/21 02:38:49;;;;;;;0.15;0.15;;;;;;;17.46;69.59;98939.38;4984581;28;20073;-75
2021/07/21 02:41:16;;;;;;;0.15;0.15;;;;;;;17.56;69.56;98945.25;4993599;28;20065;-76
2021/07/21 02:43:43;;;;;;;0.20;0.20;;;;;;;17.65;68.69;98939.56;5013831;28;20479;-77
2021/07/21 02:46:09;;;;;;;0.15;0.15;;;;;;;17.72;68.88;98934.91;4980640;28;20053;-78
2021/07/21 02:48:37;;;;;;;0.20;0.20;;;;;;;17.74;68.52;98949.22;4969183;28;20085;-76
2021/07/21 02:51:10;;;;;;;0.10;0.10;;;;;;;17.83;68.53;98947.94;4970493;28;20046;-77
2021/07/21 02:53:49;;;;;;;0.10;0.10;;;;;;;17.98;68.00;98950.41;5000052;28;20089;-75
2021/07/21 02:56:38;;;;;;;0.20;0.20;;;;;;;18.08;67.65;98946.16;4979973;28;20045;-77
2021/07/21 02:59:13;;;;;;;0.10;0.10;;;;;;;18.21;67.24;98945.28;4986122;28;20069;-77
2021/07/21 03:01:48;;;;;;;0.20;0.20;;;;;;;18.40;66.52;98940.75;4968116;28;20046;-76
2021/07/21 03:04:21;;;;;;;0.20;0.20;;;;;;;18.54;66.31;98938.78;4985040;28;20047;-77
2021/07/21 03:06:51;;;;;;;0.20;0.20;;;;;;;18.70;65.29;98937.41;4979326;28;20047;-78
2021/07/21 03:09:20;;;;;;;0.20;0.20;;;;;;;18.83;65.52;98936.50;4941089;28;20042;-77
2021/07/21 03:11:59;;;;;;;0.20;0.20;;;;;;;18.97;64.60;98933.41;4940262;28;1389595;-79
2021/07/21 03:14:25;;;;;;;0.10;0.10;;;;;;;19.10;64.21;98937.13;4990031;28;20143;-77
2021/07/21 03:17:00;;;;;;;0.20;0.20;;;;;;;19.13;63.87;98936.69;4986895;28;20041;-77
2021/07/21 03:19:39;;;;;;;0.20;0.20;;;;;;;19.23;63.94;98931.50;4997711;28;20046;-78
2021/07/21 03:22:11;;;;;;;0.20;0.20;;;;;;;19.46;62.91;98933.63;4989157;28;20050;-77
2021/07/21 03:24:50;;;;;;;0.20;0.20;;;;;;;19.71;62.31;98939.09;4988075;28;20471;-79
2021/07/21 03:27:26;;;;;;;0.20;0.20;;;;;;;19.88;61.73;98937.41;4990583;28;20034;-79
2021/07/21 03:30:11;;;;;;;0.17;0.17;;;;;;;20.03;60.91;98931.53;4990377;28;20076;-78
2021/07/21 03:32:55;;;;;;;0.20;0.20;;;;;;;20.21;60.65;98944.38;4973204;28;20042;-80
2021/07/21 03:35:30;;;;;;;0.20;0.20;;;;;;;20.37;60.96;98937.44;4971962;28;20153;-79
2021/07/21 03:37:59;;;;;;;0.20;0.20;;;;;;;20.56;59.92;98946.50;4965215;28;20050;-77
2021/07/21 03:40:27;;;;;;;0.10;0.10;;;;;;;20.52;60.06;98939.78;4979572;28;20043;-78
2021/07/21 03:43:10;;;;;;;0.10;0.10;;;;;;;20.48;60.36;98940.22;4979583;28;20085;-77
2021/07/21 03:45:45;;;;;;;0.13;0.13;;;;;;;20.69;60.10;98940.78;4982904;28;20042;-76
2021/07/21 03:48:12;;;;;;;0.20;0.20;;;;;;;20.54;59.62;98940.38;4988685;28;20050;-78
2021/07/21 03:50:59;;;;;;;0.20;0.20;;;;;;;20.76;59.50;98938.78;4991463;28;20415;-77
2021/07/21 03:53:31;;;;;;;;;;;;;;;21.04;58.41;98934.53;4956167;28;20063;-77
2021/07/21 03:55:58;;;;;;;0.20;0.20;;;;;;;21.31;57.50;98938.50;4961135;28;20377;-77
2021/07/21 03:58:44;;;;;;;0.20;0.20;;;;;;;21.53;56.65;98929.69;4983155;28;20054;-79
2021/07/21 04:01:17;;;;;;;;;;;;;;;21.61;55.58;98932.94;4987361;28;20043;-77
2021/07/21 04:03:53;;;;;;;0.30;0.30;;;;;;;21.93;53.91;98929.75;4957228;28;19992;-81
2021/07/21 04:06:20;;;;;;;0.20;0.20;;;;;;;22.20;52.75;98935.59;4987900;28;20077;-76
2021/07/21 04:09:02;;;;;;;0.20;0.20;;;;;;;22.27;51.84;98930.78;4985587;28;20042;-78
2021/07/21 04:11:35;;;;;;;0.20;0.20;;;;;;;22.43;52.10;98933.81;4974424;28;20294;-77
2021/07/21 04:14:05;;;;;;;0.20;0.20;;;;;;;22.58;51.47;98936.88;4990154;28;20039;-77
2021/07/21 04:16:55;;;;;;;0.20;0.20;;;;;;;22.81;51.40;98944.16;4974013;28;20125;-80
2021/07/21 04:19:22;;;;;;;0.20;0.20;;;;;;;22.85;51.42;98942.56;4988360;28;20066;-80
2021/07/21 04:21:50;;;;;;;0.20;0.20;;;;;;;22.94;50.54;98940.31;4965756;28;20066;-79
2021/07/21 04:24:19;;;;;;;0.20;0.20;;;;;;;22.66;51.14;98943.88;4981112;28;20491;-79
2021/07/21 04:26:48;;;;;;;0.20;0.20;;;;;;;22.99;50.80;98954.16;4999316;28;20072;-77
2021/07/21 04:29:18;;;;;;;0.20;0.20;;;;;;;22.70;51.61;98951.41;4987064;28;20046;-77
2021/07/21 04:31:45;;;;;;;0.20;0.20;;;;;;;22.77;51.41;98952.09;4942929;28;20317;-77
2021/07/21 04:34:12;;;;;;;0.20;0.20;;;;;;;22.93;50.69;98950.50;4966089;28;20050;-82
2021/07/21 04:36:40;;;;;;;0.20;0.20;;;;;;;22.88;50.69;98948.44;4988488;28;20034;-79
2021/07/21 04:39:16;;;;;;;0.20;0.20;;;;;;;23.08;49.98;98947.16;4945337;28;20047;-80
2021/07/21 04:42:06;;;;;;;0.20;0.20;;;;;;;23.29;49.84;98945.56;4967816;28;20043;-79
2021/07/21 04:44:40;;;;;;;0.20;0.20;;;;;;;23.46;49.67;98942.78;4991802;28;20114;-80
2021/07/21 04:47:07;;;;;;;0.20;0.20;;;;;;;23.55;49.47;98952.34;4965530;28;20113;-81
2021/07/21 04:49:38;;;;;;;0.20;0.20;;;;;;;23.82;48.03;98947.78;4985855;28;20534;-80
2021/07/21 04:52:08;;;;;;;0.20;0.20;;;;;;;23.99;48.15;98949.66;4989997;28;20440;-78
2021/07/21 04:54:35;;;;;;;0.20;0.20;;;;;;;24.11;47.79;98955.88;4990706;28;20526;-78
2021/07/21 04:57:04;;;;;;;0.20;0.20;;;;;;;23.97;47.43;98954.59;4992387;28;20030;-81
2021/07/21 04:59:40;;;;;;;0.20;0.20;;;;;;;24.12;47.39;98946.50;4985795;28;20050;-80
2021/07/21 05:02:08;;;;;;;0.20;0.20;;;;;;;24.41;46.40;98954.63;4990108;28;20034;-81
2021/07/21 05:04:35;;;;;;;0.20;0.20;;;;;;;24.51;46.19;98950.06;4972055;28;20212;-81
2021/07/21 05:07:30;;;;;;;0.20;0.20;;;;;;;24.78;45.66;98939.00;4979026;28;20147;-83
2021/07/21 05:10:07;;;;;;;0.20;0.20;;;;;;;24.95;44.97;98954.66;4961790;28;20042;-83
2021/07/21 05:12:44;;;;;;;0.20;0.20;;;;;;;25.04;44.63;98953.06;4988683;28;20049;-81
2021/07/21 05:15:13;;;;;;;0.27;0.27;;;;;;;25.24;44.24;98950.50;4996359;28;20042;-81
2021/07/21 05:17:46;;;;;;;0.30;0.30;;;;;;;25.61;43.26;98957.97;4989643;28;20412;-80
2021/07/21 05:20:19;;;;;;;0.30;0.30;;;;;;;25.69;42.75;98954.69;4972724;28;20489;-79
2021/07/21 05:22:58;;;;;;;0.30;0.30;;;;;;;25.89;42.10;98953.19;4968780;28;21362;-81
2021/07/21 05:25:36;;;;;;;0.30;0.30;;;;;;;25.92;42.12;98947.09;4954283;28;20031;-81
2021/07/21 05:28:22;;;;;;;0.30;0.30;;;;;;;26.32;41.04;98959.47;4971366;28;21743;-80
2021/07/21 05:30:54;;;;;;;0.30;0.30;;;;;;;26.33;40.97;98958.41;4971877;28;20451;-81
2021/07/21 05:33:22;;;;;;;0.38;0.38;;;;;;;26.79;40.72;98961.31;4974535;28;20039;-80
2021/07/21 05:35:52;;;;;;;0.30;0.30;;;;;;;27.21;38.67;98965.84;4956883;28;20098;-80
2021/07/21 05:38:24;;;;;;;0.40;0.40;;;;;;;27.49;38.63;98951.38;4949410;28;20104;-80
2021/07/21 05:40:51;;;;;;;0.30;0.30;;;;;;;27.60;37.46;98953.03;4965063;28;20047;-84
2021/07/21 05:43:24;;;;;;;0.30;0.30;;;;;;;27.80;36.82;98959.72;4956862;28;20057;-81
2021/07/21 05:45:58;;;;;;;0.30;0.30;;;;;;;27.64;36.76;98956.94;4986550;28;20417;-82
2021/07/21 05:48:33;;;;;;;0.30;0.30;;;;;;;27.56;37.21;98948.31;4951765;28;20054;-80
2021/07/21 05:51:23;;;;;;;0.30;0.30;;;;;;;27.82;36.94;98951.91;4955546;28;20057;-80
2021/07/21 05:53:55;;;;;;;0.20;0.20;;;;;;;27.76;37.08;98942.78;4969055;28;20396;-80
2021/07/21 05:56:23;;;;;;;0.20;0.20;;;;;;;27.47;36.78;98945.28;4967266;28;20039;-79
2021/07/21 05:58:56;;;;;;;0.20;0.20;;;;;;;27.49;36.57;98948.59;4966912;28;20110;-81
2021/07/21 06:01:23;;;;;;;0.30;0.30;;;;;;;27.05;37.37;98951.91;4965326;28;20097;-77
2021/07/21 06:03:50;;;;;;;0.30;0.30;;;;;;;27.33;36.91;98953.34;4976544;28;20110;-79
2021/07/21 06:06:35;;;;;;;0.30;0.30;;;;;;;27.63;35.94;98943.31;4977971;28;20103;-78
2021/07/21 06:09:28;;;;;;;0.30;0.30;;;;;;;28.09;35.39;98934.91;4955375;28;20169;-80
2021/07/21 06:12:08;;;;;;;0.20;0.20;;;;;;;28.13;35.51;98936.00;4979979;28;20031;-81
2021/07/21 06:14:34;;;;;;;0.30;0.30;;;;;;;28.15;35.54;98938.47;4987396;28;20054;-80
2021/07/21 06:17:02;;;;;;;0.30;0.30;;;;;;;28.28;35.33;98943.44;4954202;28;20134;-79
2021/07/21 06:19:33;;;;;;;0.30;0.30;;;;;;;28.36;34.77;98946.44;4964624;28;20050;-80
2021/07/21 06:22:03;;;;;;;0.30;0.30;;;;;;;28.50;34.74;98941.13;4970601;28;20031;-80
2021/07/21 06:24:39;;;;;;;0.20;0.20;;;;;;;28.78;34.59;98939.56;4969794;28;20049;-80
2021/07/21 06:27:15;;;;;;;0.30;0.30;;;;;;;28.86;33.84;98943.69;4971751;28;20070;-81
2021/07/21 06:29:48;;;;;;;0.40;0.40;;;;;;;28.89;34.20;98948.69;4983625;28;20129;-80
2021/07/21 06:32:14;;;;;;;0.30;0.30;;;;;;;28.91;34.19;98929.72;4967436;28;20047;-83
2021/07/21 06:34:42;;;;;;;0.22;0.22;;;;;;;28.92;34.26;98942.50;4952981;28;20063;-82
2021/07/21 06:37:15;;;;;;;0.20;0.20;;;;;;;28.56;34.61;98928.03;4980382;28;20051;-82
2021/07/21 06:39:41;;;;;;;0.30;0.30;;;;;;;28.71;34.49;98936.28;4954129;28;20039;-82
2021/07/21 06:42:09;;;;;;;0.30;0.30;;;;;;;28.86;34.26;98942.88;4937863;28;20065;-81
2021/07/21 06:44:38;;;;;;;0.30;0.30;;;;;;;28.96;33.54;98938.06;4969051;28;20079;-80
2021/07/21 06:47:24;;;;;;;0.30;0.30;;;;;;;29.25;33.12;98937.28;4989139;28;20079;-82
2021/07/21 06:50:03;;;;;;;0.38;0.38;;;;;;;29.20;33.71;98942.91;4956482;28;20038;-81
2021/07/21 06:52:33;;;;;;;0.50;0.50;;;;;;;29.58;32.83;98937.53;4968985;28;20050;-80
2021/07/21 06:54:59;;;;;;;0.40;0.40;;;;;;;29.86;32.49;98928.34;4983499;28;20043;-81
2021/07/21 06:57:28;;;;;;;0.40;0.40;;;;;;;30.30;31.49;98932.88;4966407;28;20043;-80
2021/07/21 07:00:13;;;;;;;0.40;0.40;;;;;;;30.60;31.34;98936.38;4978199;28;20047;-83
2021/07/21 07:02:59;;;;;;;0.30;0.30;;;;;;;30.58;30.89;98933.09;4985590;28;20046;-82
2021/07/21 07:05:45;;;;;;;0.40;0.40;;;;;;;30.73;30.62;98930.06;4972817;28;20039;-80
2021/07/21 07:08:31;;;;;;;0.50;0.50;;;;;;;30.31;31.35;98934.53;4970511;28;20047;-82
2021/07/21 07:11:16;;;;;;;0.60;0.60;;;;;;;29.88;32.17;98928.91;4955232;28;20102;-81
2021/07/21 07:13:43;;;;;;;0.50;0.50;;;;;;;30.11;31.85;98931.97;4954234;28;20143;-81
2021/07/21 07:16:12;;;;;;;0.40;0.40;;;;;;;30.22;31.76;98925.19;4937179;28;20105;-81
2021/07/21 07:18:38;;;;;;;0.52;0.52;;;;;;;30.27;32.10;98923.16;4970514;28;20062;-80
2021/07/21 07:21:05;;;;;;;0.50;0.50;;;;;;;30.89;31.53;98939.06;4970416;28;20047;-80
2021/07/21 07:23:31;;;;;;;0.52;0.52;;;;;;;30.48;31.52;98932.06;4968180;28;20049;-83
2021/07/21 07:25:58;;;;;;;0.50;0.50;;;;;;;31.05;30.76;98931.28;4969057;28;20337;-79
2021/07/21 07:28:25;;;;;;;0.50;0.50;;;;;;;29.87;32.22;98924.44;4939065;28;20059;-81
2021/07/21 07:30:51;;;;;;;0.50;0.50;;;;;;;29.33;32.86;98925.53;4969416;28;20089;-79
2021/07/21 07:33:19;;;;;;;0.40;0.40;;;;;;;29.51;32.72;98926.75;4954330;28;20054;-82
2021/07/21 07:35:45;;;;;;;0.50;0.50;;;;;;;29.27;33.19;98926.69;4974052;28;20114;-80
2021/07/21 07:38:14;;;;;;;0.50;0.50;;;;;;;29.39;32.98;98924.34;4978725;28;20046;-82
2021/07/21 07:40:42;;;;;;;0.40;0.40;;;;;;;29.69;32.65;98916.84;4928397;28;20047;-81
2021/07/21 07:43:09;;;;;;;0.30;0.30;;;;;;;29.76;31.63;98928.47;4950762;28;20102;-78
2021/07/21 07:45:36;;;;;;;0.30;0.30;;;;;;;29.69;31.33;98928.84;4944687;28;20039;-81
2021/07/21 07:48:03;;;;;;;0.30;0.30;;;;;;;29.03;32.89;98924.69;4990421;28;20106;-80
2021/07/21 07:50:29;;;;;;;0.35;0.35;;;;;;;28.95;32.72;98927.19;4954339;28;20098;-79
2021/07/21 07:52:56;;;;;;;0.40;0.40;;;;;;;29.24;32.42;98930.06;4970654;28;20455;-82
2021/07/21 07:55:23;;;;;;;0.50;0.50;;;;;;;30.14;31.18;98931.41;4970891;28;20083;-80
2021/07/21 07:57:49;;;;;;;0.60;0.60;;;;;;;30.35;30.71;98930.03;4928503;28;20051;-80
2021/07/21 08:00:16;;;;;;;0.70;0.70;;;;;;;29.62;31.78;98921.94;4971272;28;20130;-81
2021/07/21 08:02:43;;;;;;;1.00;1.00;;;;;;;29.58;31.84;98923.59;4973027;28;20094;-82
2021/07/21 08:05:10;;;;;;;0.90;0.90;;;;;;;30.63;30.64;98931.03;4977130;28;20039;-80
2021/07/21 08:07:36;;;;;;;0.90;0.90;;;;;;;32.12;28.40;98927.41;4953687;28;20046;-79
2021/07/21 08:10:07;;;;;;;0.80;0.80;;;;;;;32.85;26.49;98928.34;4958375;28;20412;-82
2021/07/21 08:12:33;;;;;;;1.00;1.00;;;;;;;32.37;27.61;98920.44;4954721;28;20124;-82
2021/07/21 08:15:00;;;;;;;0.80;0.80;;;;;;;33.60;26.28;98920.34;4957432;28;20453;-82
2021/07/21 08:17:27;;;;;;;1.10;1.10;;;;;;;33.63;26.07;98925.31;4953679;28;20058;-80
2021/07/21 08:19:54;;;;;;;1.00;1.00;;;;;;;35.50;24.13;98927.53;4971891;28;20061;-83
2021/07/21 08:22:20;;;;;;;1.10;1.10;;;;;;;36.06;23.63;98930.38;4941670;28;20043;-80
2021/07/21 08:24:47;;;;;;;1.00;1.00;;;;;;;36.25;23.37;98921.50;4970408;28;20066;-83
2021/07/21 08:27:14;;;;;;;0.50;0.50;;;;;;;36.32;22.69;98921.81;4968900;28;20075;-80
2021/07/21 08:29:41;;;;;;;0.70;0.70;;;;;;;36.07;23.14;98929.22;4964944;28;20089;-83
2021/07/21 08:32:08;;;;;;;0.55;0.55;;;;;;;35.91;23.63;98923.31;4970223;28;20046;-80
2021/07/21 08:34:35;;;;;;;0.40;0.40;;;;;;;35.65;23.78;98917.75;4976364;28;20071;-84
2021/07/21 08:37:02;;;;;;;0.85;0.85;;;;;;;35.66;23.56;98920.25;4986890;28;20103;-84
2021/07/21 08:39:28;;;;;;;0.60;0.60;;;;;;;34.71;24.33;98921.09;4962289;28;20050;-82
2021/07/21 08:41:56;;;;;;;0.80;0.80;;;;;;;34.49;24.87;98901.56;4974092;28;20037;-80
2021/07/21 08:44:26;;;;;;;0.80;0.80;;;;;;;34.63;24.54;98913.50;4952197;28;20122;-80
2021/07/21 08:46:52;;;;;;;1.05;1.05;;;;;;;35.66;23.53;98911.81;4984758;28;20049;-81
2021/07/21 08:49:18;;;;;;;1.00;1.00;;;;;;;36.32;22.41;98910.53;4989201;28;20427;-83
2021/07/21 08:51:45;;;;;;;1.00;1.00;;;;;;;37.07;22.13;98911.50;4970078;28;20046;-82
2021/07/21 08:54:11;;;;;;;0.60;0.60;;;;;;;36.96;21.83;98906.63;4942921;28;20061;-83
2021/07/21 08:56:38;;;;;;;0.60;0.60;;;;;;;37.18;21.63;98900.63;4973643;28;20056;-82
2021/07/21 08:59:05;;;;;;;0.77;0.77;;;;;;;37.69;21.47;98906.09;4991978;28;20142;-81
2021/07/21 09:01:35;;;;;;;0.60;0.60;;;;;;;37.48;21.32;98912.66;4944387;28;20066;-84
2021/07/21 09:04:02;;;;;;;0.35;0.35;;;;;;;35.83;22.69;98898.81;4992934;28;20039;-82
2021/07/21 09:06:30;;;;;;;0.30;0.30;;;;;;;33.96;25.07;98894.13;4976892;28;20078;-81
2021/07/21 09:08:58;;;;;;;0.30;0.30;;;;;;;32.29;27.00;98893.22;4980689;28;20102;-83
2021/07/21 09:11:26;;;;;;;0.60;0.60;;;;;;;32.03;27.92;98883.69;4963386;28;20105;-82
2021/07/21 09:13:53;;;;;;;0.80;0.80;;;;;;;33.00;27.01;98881.53;4977548;28;20146;-82
2021/07/21 09:16:19;;;;;;;0.50;0.50;;;;;;;33.31;26.74;98884.38;4963905;28;20038;-81
2021/07/21 09:18:47;;;;;;;0.40;0.40;;;;;;;33.57;25.86;98887.38;4977078;28;20142;-81
2021/07/21 09:21:15;;;;;;;0.50;0.50;;;;;;;32.87;26.48;98886.88;4972956;28;20152;-82
2021/07/21 09:23:47;;;;;;;0.73;0.73;;;;;;;34.08;25.91;98880.34;4946608;28;20493;-84
2021/07/21 09:26:19;;;;;;;0.60;0.60;;;;;;;35.16;24.05;98887.06;4959989;28;20051;-82
2021/07/21 09:28:46;;;;;;;0.60;0.60;;;;;;;35.44;23.93;98886.69;4963174;28;20066;-84
2021/07/21 09:31:37;;;;;;;0.65;0.65;;;;;;;35.28;24.04;98878.78;4959085;28;20154;-83
2021/07/21 09:34:16;;;;;;;0.70;0.70;;;;;;;35.02;24.18;98875.19;4956706;28;20517;-82
2021/07/21 09:36:43;;;;;;;0.40;0.40;;;;;;;35.77;23.37;98872.88;4988398;28;20056;-84
2021/07/21 09:39:11;;;;;;;0.60;0.60;;;;;;;35.38;23.52;98871.16;4982867;28;20070;-83
2021/07/21 09:41:53;;;;;;;0.60;0.60;;;;;;;35.67;23.30;98874.06;4983042;28;20078;-82
2021/07/21 09:44:33;;;;;;;0.45;0.45;;;;;;;35.33;23.47;98865.72;4974377;28;20043;-80
2021/07/21 09:47:26;;;;;;;0.20;0.20;;;;;;;35.36;23.76;98856.59;4986946;28;20374;-81
2021/07/21 09:50:16;;;;;;;0.60;0.60;;;;;;;35.91;22.88;98848.16;4972370;28;20055;-84
2021/07/21 09:52:47;;;;;;;0.40;0.40;;;;;;;35.48;23.61;98853.94;4975190;28;20064;-81
2021/07/21 09:55:16;;;;;;;0.30;0.30;;;;;;;33.06;26.01;98846.66;4962202;28;20039;-81
2021/07/21 09:57:57;;;;;;;0.60;0.60;;;;;;;33.87;25.59;98851.22;4981125;28;20055;-82
2021/07/21 10:00:31;;;;;;;0.40;0.40;;;;;;;34.10;25.57;98844.38;4980858;28;20055;-84
2021/07/21 10:03:11;;;;;;;0.40;0.40;;;;;;;34.19;25.55;98848.03;4982891;28;20045;-84
2021/07/21 10:06:06;;;;;;;0.52;0.52;;;;;;;34.77;24.68;98845.94;4974530;28;20038;-82
2021/07/21 10:08:41;;;;;;;0.50;0.50;;;;;;;32.32;27.03;98839.41;4986624;28;20043;-83
2021/07/21 10:11:34;;;;;;;0.30;0.30;;;;;;;32.62;27.05;98845.50;4978213;28;20535;-84
2021/07/21 10:14:04;;;;;;;0.60;0.60;;;;;;;32.83;26.82;98840.19;4961894;28;20039;-83
2021/07/21 10:17:02;;;;;;;0.50;0.50;;;;;;;32.81;26.62;98832.13;4986069;28;20039;-82
2021/07/21 10:19:29;;;;;;;0.30;0.30;;;;;;;31.63;28.22;98827.44;4945012;28;20117;-83
2021/07/21 10:22:01;;;;;;;0.30;0.30;;;;;;;31.33;29.16;98826.91;4959927;28;20059;-82
2021/07/21 10:24:29;;;;;;;0.30;0.30;;;;;;;31.81;28.03;98818.16;4978066;28;20093;-82
2021/07/21 10:26:58;;;;;;;0.38;0.30;;;;;;;32.17;27.50;98820.19;4961756;28;20038;-84
2021/07/21 10:29:25;;;;;;;0.50;0.50;;;;;;;33.03;26.66;98816.50;4979582;28;20050;-82
2021/07/21 10:31:52;;;;;;;0.30;0.30;;;;;;;33.76;25.48;98817.84;4956024;28;20138;-82
2021/07/21 10:34:22;;;;;;;0.40;0.40;;;;;;;34.03;26.03;98810.34;4977721;28;20031;-84
2021/07/21 10:36:51;;;;;;;0.30;0.30;;;;;;;33.69;26.18;98817.50;4969842;28;20416;-85
2021/07/21 10:39:26;;;;;;;0.30;0.30;;;;;;;33.85;26.16;98810.28;4956485;28;20146;-83
2021/07/21 10:41:54;;;;;;;0.20;0.20;;;;;;;33.71;25.70;98809.56;4966162;28;20074;-83
2021/07/21 10:44:21;;;;;;;0.20;0.20;;;;;;;33.23;26.74;98815.94;4957982;28;20049;-82
2021/07/21 10:46:52;;;;;;;0.20;0.20;;;;;;;33.11;26.97;98819.34;4973521;28;20031;-83
2021/07/21 11:00:32;;;;;;;0.30;0.30;;;;;;;30.94;29.84;98818.94;4982580;28;20055;-81
2021/07/21 11:03:25;;;;;;;0.30;0.30;;;;;;;30.55;30.09;98827.66;4935095;28;20039;-81
2021/07/21 11:06:07;;;;;;;0.30;0.30;;;;;;;31.14;28.91;98823.34;4974695;28;20031;-83
2021/07/21 11:08:47;;;;;;;0.50;0.50;;;;;;;31.66;28.87;98824.84;4973957;28;20069;-83
2021/07/21 11:11:21;;;;;;;0.30;0.30;;;;;;;31.15;28.64;98819.41;4987152;28;20047;-83
2021/07/21 11:13:58;;;;;;;0.30;0.30;;;;;;;31.27;29.02;98819.75;4966348;28;20089;-80
2021/07/21 11:16:50;;;;;;;0.20;0.20;;;;;;;29.84;30.67;98829.44;4940363;28;20057;-80
2021/07/21 11:19:49;;;;;;;0.30;0.30;;;;;;;29.61;31.71;98826.38;4965056;28;20431;-81
2021/07/21 11:22:19;;;;;;;0.30;0.30;;;;;;;30.14;30.81;98828.22;4968888;28;20066;-81
2021/07/21 11:25:15;;;;;;;0.20;0.20;;;;;;;30.90;30.10;98831.88;4955189;28;20045;-82
2021/07/21 11:28:03;;;;;;;0.10;0.10;;;;;;;30.63;30.31;98829.75;4984949;28;20492;-83
2021/07/21 11:30:47;;;;;;;0.20;0.20;;;;;;;30.28;31.59;98823.59;4973845;28;20077;-79
2021/07/21 11:33:42;;;;;;;0.20;0.20;;;;;;;30.34;31.10;98827.13;4946643;28;20042;-84
2021/07/21 11:36:33;;;;;;;0.20;0.20;;;;;;;30.32;30.82;98829.41;4976841;28;20058;-84
2021/07/21 11:39:00;;;;;;;0.20;0.20;;;;;;;30.33;31.43;98829.09;4981919;28;20046;-80
2021/07/21 11:41:45;;;;;;;0.20;0.20;;;;;;;30.35;31.07;98823.19;4973466;28;20039;-78
2021/07/21 11:44:52;;;;;;;0.20;0.20;;;;;;;29.74;32.18;98824.84;4973748;28;20075;-82
2021/07/21 11:47:19;;;;;;;0.20;0.20;;;;;;;29.24;33.08;98811.16;4939745;28;20062;-82
2021/07/21 11:49:51;;;;;;;0.13;0.13;;;;;;;28.77;33.42;98811.88;4971625;28;20051;-83
2021/07/21 11:52:23;;;;;;;0.10;0.10;;;;;;;28.58;33.53;98815.34;4955809;28;20118;-81
2021/07/21 11:54:51;;;;;;;0.20;0.20;;;;;;;28.68;33.09;98821.97;4972790;28;20043;-83
2021/07/21 11:57:17;;;;;;;0.10;0.10;;;;;;;28.45;34.11;98813.25;4957343;28;20047;-81
2021/07/21 11:59:46;;;;;;;0.10;0.10;;;;;;;28.31;34.61;98814.97;4975603;28;20070;-82
2021/07/21 12:02:17;;;;;;;0.10;0.10;;;;;;;27.90;35.01;98815.22;4953843;28;20143;-79
2021/07/21 12:04:48;;;;;;;0.20;0.20;;;;;;;28.29;35.03;98822.75;4986598;28;20469;-81
2021/07/21 12:07:19;;;;;;;0.13;0.13;;;;;;;28.58;34.18;98814.53;4970422;28;20090;-81
2021/07/21 12:09:52;;;;;;;0.20;0.20;;;;;;;28.19;34.91;98817.25;4965356;28;20093;-83
2021/07/21 12:12:26;;;;;;;0.20;0.20;;;;;;;28.17;34.42;98813.94;4949968;28;20050;-80
2021/07/21 12:14:55;;;;;;;0.20;0.20;;;;;;;28.38;34.01;98818.28;4956843;28;20238;-81
2021/07/21 12:17:26;;;;;;;0.20;0.20;;;;;;;28.31;33.85;98821.38;4992358;28;20054;-84